sensor_id;sensor_type;location;lat;lon;timestamp;P1;durP1;ratioP1;P2;durP2;ratioP2
15921;SDS011;8060;50.948;3.146;2023-09-12T05:47:24;30.50;;;20.80;;
15921;SDS011;8060;50.948;3.146;2023-09-12T05:49:52;31.07;;;20.83;;
15921;SDS011;8060;50.948;3.146;2023-09-12T05:52:20;31.60;;;21.37;;
15921;SDS011;8060;50.948;3.146;2023-09-12T05:54:49;40.37;;;21.07;;
15921;SDS011;8060;50.948;3.146;2023-09-12T05:57:17;37.03;;;22.70;;
15921;SDS011;8060;50.948;3.146;2023-09-12T05:59:45;36.60;;;21.33;;
15921;SDS011;8060;50.948;3.146;2023-09-12T06:02:14;35.03;;;20.00;;
15921;SDS011;8060;50.948;3.146;2023-09-12T06:04:43;29.07;;;19.43;;
15921;SDS011;8060;50.948;3.146;2023-09-12T06:07:11;29.60;;;21.17;;
15921;SDS011;8060;50.948;3.146;2023-09-12T06:09:39;34.77;;;20.23;;
15921;SDS011;8060;50.948;3.146;2023-09-12T06:12:08;30.50;;;19.40;;
15921;SDS011;8060;50.948;3.146;2023-09-12T06:14:36;36.67;;;18.87;;
15921;SDS011;8060;50.948;3.146;2023-09-12T06:17:04;29.27;;;19.70;;
15921;SDS011;8060;50.948;3.146;2023-09-12T06:19:32;27.37;;;19.23;;
15921;SDS011;8060;50.948;3.146;2023-09-12T06:22:01;27.70;;;18.93;;
15921;SDS011;8060;50.948;3.146;2023-09-12T06:24:29;32.07;;;18.67;;
15921;SDS011;8060;50.948;3.146;2023-09-12T06:26:57;27.40;;;18.90;;
15921;SDS011;8060;50.948;3.146;2023-09-12T06:29:25;28.20;;;18.53;;
15921;SDS011;8060;50.948;3.146;2023-09-12T06:31:53;28.73;;;19.43;;
15921;SDS011;8060;50.948;3.146;2023-09-12T06:34:22;28.40;;;19.50;;
15921;SDS011;8060;50.948;3.146;2023-09-12T06:36:50;32.23;;;20.03;;
15921;SDS011;8060;50.948;3.146;2023-09-12T06:39:20;33.37;;;20.40;;
15921;SDS011;8060;50.948;3.146;2023-09-12T06:41:50;32.10;;;20.63;;
15921;SDS011;8060;50.948;3.146;2023-09-12T06:44:18;32.27;;;20.77;;
15921;SDS011;8060;50.948;3.146;2023-09-12T06:46:49;31.33;;;19.97;;
15921;SDS011;8060;50.948;3.146;2023-09-12T06:49:17;32.67;;;19.77;;
15921;SDS011;8060;50.948;3.146;2023-09-12T06:51:45;31.37;;;20.60;;
15921;SDS011;8060;50.948;3.146;2023-09-12T06:54:16;31.53;;;19.13;;
15921;SDS011;8060;50.948;3.146;2023-09-12T06:56:46;29.83;;;19.67;;
15921;SDS011;8060;50.948;3.146;2023-09-12T06:59:14;31.10;;;18.77;;
15921;SDS011;8060;50.948;3.146;2023-09-12T07:01:42;30.23;;;20.37;;
15921;SDS011;8060;50.948;3.146;2023-09-12T07:04:11;34.97;;;20.00;;
15921;SDS011;8060;50.948;3.146;2023-09-12T07:06:39;29.30;;;19.70;;
15921;SDS011;8060;50.948;3.146;2023-09-12T07:09:09;30.67;;;19.67;;
15921;SDS011;8060;50.948;3.146;2023-09-12T07:11:41;32.13;;;20.20;;
15921;SDS011;8060;50.948;3.146;2023-09-12T07:14:10;32.43;;;19.67;;
15921;SDS011;8060;50.948;3.146;2023-09-12T07:16:39;34.27;;;20.67;;
15921;SDS011;8060;50.948;3.146;2023-09-12T07:19:07;31.23;;;19.73;;
15921;SDS011;8060;50.948;3.146;2023-09-12T07:21:36;30.20;;;20.20;;
15921;SDS011;8060;50.948;3.146;2023-09-12T07:24:04;30.87;;;20.30;;
15921;SDS011;8060;50.948;3.146;2023-09-12T07:26:33;32.57;;;20.17;;
15921;SDS011;8060;50.948;3.146;2023-09-12T07:29:03;26.53;;;18.60;;
15921;SDS011;8060;50.948;3.146;2023-09-12T07:31:33;30.37;;;19.63;;
15921;SDS011;8060;50.948;3.146;2023-09-12T07:34:01;29.77;;;19.33;;
15921;SDS011;8060;50.948;3.146;2023-09-12T07:36:34;29.10;;;20.13;;
15921;SDS011;8060;50.948;3.146;2023-09-12T07:39:02;30.60;;;19.57;;
15921;SDS011;8060;50.948;3.146;2023-09-12T07:41:31;30.17;;;19.87;;
15921;SDS011;8060;50.948;3.146;2023-09-12T07:43:59;27.30;;;19.73;;
15921;SDS011;8060;50.948;3.146;2023-09-12T07:46:28;33.70;;;20.27;;
15921;SDS011;8060;50.948;3.146;2023-09-12T07:48:57;28.70;;;20.43;;
15921;SDS011;8060;50.948;3.146;2023-09-12T07:51:25;32.30;;;20.83;;
15921;SDS011;8060;50.948;3.146;2023-09-12T07:53:53;35.33;;;21.33;;
15921;SDS011;8060;50.948;3.146;2023-09-12T07:56:22;35.63;;;22.10;;
15921;SDS011;8060;50.948;3.146;2023-09-12T07:58:50;40.07;;;23.73;;
15921;SDS011;8060;50.948;3.146;2023-09-12T08:01:18;39.23;;;22.33;;
15921;SDS011;8060;50.948;3.146;2023-09-12T08:03:46;37.20;;;23.00;;
15921;SDS011;8060;50.948;3.146;2023-09-12T08:06:16;33.20;;;21.37;;
15921;SDS011;8060;50.948;3.146;2023-09-12T08:08:44;39.20;;;23.67;;
15921;SDS011;8060;50.948;3.146;2023-09-12T08:11:12;40.90;;;23.63;;
15921;SDS011;8060;50.948;3.146;2023-09-12T08:13:40;41.50;;;23.80;;
15921;SDS011;8060;50.948;3.146;2023-09-12T08:16:09;38.77;;;23.70;;
15921;SDS011;8060;50.948;3.146;2023-09-12T08:18:37;46.17;;;24.07;;
15921;SDS011;8060;50.948;3.146;2023-09-12T08:21:05;40.73;;;23.97;;
15921;SDS011;8060;50.948;3.146;2023-09-12T08:23:34;42.20;;;23.73;;
15921;SDS011;8060;50.948;3.146;2023-09-12T08:26:03;47.83;;;24.73;;
15921;SDS011;8060;50.948;3.146;2023-09-12T08:28:31;46.37;;;25.27;;
15921;SDS011;8060;50.948;3.146;2023-09-12T08:30:59;46.37;;;25.90;;
15921;SDS011;8060;50.948;3.146;2023-09-12T08:33:27;53.27;;;27.20;;
15921;SDS011;8060;50.948;3.146;2023-09-12T08:35:55;56.33;;;26.53;;
15921;SDS011;8060;50.948;3.146;2023-09-12T08:38:23;48.63;;;26.17;;
15921;SDS011;8060;50.948;3.146;2023-09-12T08:40:53;54.20;;;26.43;;
15921;SDS011;8060;50.948;3.146;2023-09-12T08:43:21;50.23;;;26.10;;
15921;SDS011;8060;50.948;3.146;2023-09-12T08:45:49;50.10;;;26.37;;
15921;SDS011;8060;50.948;3.146;2023-09-12T08:48:18;52.33;;;27.13;;
15921;SDS011;8060;50.948;3.146;2023-09-12T08:50:50;46.20;;;25.43;;
15921;SDS011;8060;50.948;3.146;2023-09-12T08:53:20;46.30;;;25.63;;
15921;SDS011;8060;50.948;3.146;2023-09-12T08:55:49;49.73;;;26.07;;
15921;SDS011;8060;50.948;3.146;2023-09-12T08:58:20;46.17;;;25.87;;
15921;SDS011;8060;50.948;3.146;2023-09-12T09:00:50;48.23;;;26.97;;
15921;SDS011;8060;50.948;3.146;2023-09-12T09:03:19;44.57;;;26.47;;
15921;SDS011;8060;50.948;3.146;2023-09-12T09:05:49;47.40;;;25.10;;
15921;SDS011;8060;50.948;3.146;2023-09-12T09:08:18;43.83;;;26.73;;
15921;SDS011;8060;50.948;3.146;2023-09-12T09:10:55;42.33;;;24.93;;
15921;SDS011;8060;50.948;3.146;2023-09-12T09:13:25;44.30;;;25.83;;
15921;SDS011;8060;50.948;3.146;2023-09-12T09:18:49;44.73;;;26.20;;
15921;SDS011;8060;50.948;3.146;2023-09-12T09:21:18;37.47;;;25.50;;
15921;SDS011;8060;50.948;3.146;2023-09-12T09:23:50;41.27;;;25.77;;
15921;SDS011;8060;50.948;3.146;2023-09-12T09:26:19;37.47;;;25.30;;
15921;SDS011;8060;50.948;3.146;2023-09-12T09:29:03;38.00;;;25.53;;
15921;SDS011;8060;50.948;3.146;2023-09-12T09:31:31;36.17;;;24.67;;
15921;SDS011;8060;50.948;3.146;2023-09-12T09:34:00;41.57;;;27.00;;
15921;SDS011;8060;50.948;3.146;2023-09-12T09:36:30;42.03;;;26.93;;
15921;SDS011;8060;50.948;3.146;2023-09-12T09:38:59;39.60;;;26.70;;
15921;SDS011;8060;50.948;3.146;2023-09-12T09:41:31;37.77;;;26.40;;
15921;SDS011;8060;50.948;3.146;2023-09-12T09:44:00;38.73;;;27.50;;
15921;SDS011;8060;50.948;3.146;2023-09-12T09:46:29;43.90;;;29.30;;
15921;SDS011;8060;50.948;3.146;2023-09-12T09:48:57;41.33;;;29.67;;
15921;SDS011;8060;50.948;3.146;2023-09-12T09:51:26;40.73;;;29.63;;
15921;SDS011;8060;50.948;3.146;2023-09-12T09:53:54;45.57;;;28.97;;
15921;SDS011;8060;50.948;3.146;2023-09-12T09:56:24;43.73;;;27.83;;
15921;SDS011;8060;50.948;3.146;2023-09-12T09:58:54;43.50;;;28.63;;
15921;SDS011;8060;50.948;3.146;2023-09-12T10:01:23;43.27;;;29.23;;
15921;SDS011;8060;50.948;3.146;2023-09-12T10:03:57;44.43;;;30.13;;
15921;SDS011;8060;50.948;3.146;2023-09-12T10:06:27;44.43;;;29.37;;
15921;SDS011;8060;50.948;3.146;2023-09-12T10:08:55;43.73;;;31.33;;
15921;SDS011;8060;50.948;3.146;2023-09-12T10:11:28;47.43;;;32.90;;
15921;SDS011;8060;50.948;3.146;2023-09-12T10:14:02;48.77;;;32.57;;
15921;SDS011;8060;50.948;3.146;2023-09-12T10:16:32;41.70;;;31.70;;
15921;SDS011;8060;50.948;3.146;2023-09-12T10:19:06;45.83;;;32.53;;
15921;SDS011;8060;50.948;3.146;2023-09-12T10:21:41;45.90;;;32.13;;
15921;SDS011;8060;50.948;3.146;2023-09-12T10:24:15;41.57;;;31.60;;
15921;SDS011;8060;50.948;3.146;2023-09-12T10:26:44;40.73;;;30.10;;
15921;SDS011;8060;50.948;3.146;2023-09-12T10:29:13;44.57;;;31.60;;
15921;SDS011;8060;50.948;3.146;2023-09-12T10:31:42;46.07;;;32.63;;
15921;SDS011;8060;50.948;3.146;2023-09-12T10:34:12;48.60;;;33.97;;
15921;SDS011;8060;50.948;3.146;2023-09-12T10:36:44;45.03;;;33.23;;
15921;SDS011;8060;50.948;3.146;2023-09-12T10:39:14;46.93;;;33.40;;
15921;SDS011;8060;50.948;3.146;2023-09-12T10:41:42;45.53;;;32.40;;
15921;SDS011;8060;50.948;3.146;2023-09-12T10:44:11;45.10;;;31.53;;
15921;SDS011;8060;50.948;3.146;2023-09-12T10:46:43;44.83;;;32.20;;
15921;SDS011;8060;50.948;3.146;2023-09-12T10:49:14;42.50;;;31.13;;
15921;SDS011;8060;50.948;3.146;2023-09-12T10:51:43;47.90;;;32.17;;
15921;SDS011;8060;50.948;3.146;2023-09-12T10:54:15;44.97;;;31.60;;
15921;SDS011;8060;50.948;3.146;2023-09-12T10:57:01;47.33;;;30.40;;
15921;SDS011;8060;50.948;3.146;2023-09-12T10:59:30;42.97;;;30.27;;
15921;SDS011;8060;50.948;3.146;2023-09-12T11:04:57;43.67;;;31.47;;
15921;SDS011;8060;50.948;3.146;2023-09-12T11:07:29;45.33;;;31.50;;
15921;SDS011;8060;50.948;3.146;2023-09-12T11:10:15;49.07;;;34.33;;
15921;SDS011;8060;50.948;3.146;2023-09-12T11:12:48;52.07;;;36.43;;
15921;SDS011;8060;50.948;3.146;2023-09-12T11:15:17;49.10;;;36.27;;
15921;SDS011;8060;50.948;3.146;2023-09-12T11:17:47;56.60;;;37.23;;
15921;SDS011;8060;50.948;3.146;2023-09-12T11:20:17;46.03;;;34.80;;
15921;SDS011;8060;50.948;3.146;2023-09-12T11:22:48;48.03;;;35.10;;
15921;SDS011;8060;50.948;3.146;2023-09-12T11:25:20;42.30;;;33.30;;
15921;SDS011;8060;50.948;3.146;2023-09-12T11:30:36;50.73;;;34.80;;
15921;SDS011;8060;50.948;3.146;2023-09-12T11:33:21;43.23;;;33.17;;
15921;SDS011;8060;50.948;3.146;2023-09-12T11:35:53;45.57;;;33.87;;
15921;SDS011;8060;50.948;3.146;2023-09-12T11:38:27;41.23;;;32.20;;
15921;SDS011;8060;50.948;3.146;2023-09-12T11:40:57;44.20;;;33.33;;
15921;SDS011;8060;50.948;3.146;2023-09-12T11:43:27;45.67;;;32.55;;
15921;SDS011;8060;50.948;3.146;2023-09-12T11:45:56;39.67;;;30.88;;
15921;SDS011;8060;50.948;3.146;2023-09-12T11:48:25;41.72;;;32.38;;
15921;SDS011;8060;50.948;3.146;2023-09-12T11:50:57;37.63;;;29.65;;
15921;SDS011;8060;50.948;3.146;2023-09-12T11:53:28;37.58;;;30.27;;
15921;SDS011;8060;50.948;3.146;2023-09-12T11:55:59;33.17;;;28.90;;
15921;SDS011;8060;50.948;3.146;2023-09-12T11:58:28;32.67;;;29.00;;
15921;SDS011;8060;50.948;3.146;2023-09-12T12:00:56;40.80;;;30.30;;
15921;SDS011;8060;50.948;3.146;2023-09-12T12:03:26;36.08;;;30.88;;
15921;SDS011;8060;50.948;3.146;2023-09-12T12:05:55;34.45;;;29.80;;
15921;SDS011;8060;50.948;3.146;2023-09-12T12:08:25;34.95;;;28.45;;
15921;SDS011;8060;50.948;3.146;2023-09-12T12:10:58;33.97;;;27.98;;
15921;SDS011;8060;50.948;3.146;2023-09-12T12:13:26;28.95;;;25.80;;
15921;SDS011;8060;50.948;3.146;2023-09-12T12:16:14;33.63;;;26.55;;
15921;SDS011;8060;50.948;3.146;2023-09-12T12:18:43;30.23;;;26.92;;
15921;SDS011;8060;50.948;3.146;2023-09-12T12:21:13;29.88;;;25.92;;
15921;SDS011;8060;50.948;3.146;2023-09-12T12:23:41;26.27;;;23.40;;
15921;SDS011;8060;50.948;3.146;2023-09-12T12:26:10;27.65;;;24.58;;
15921;SDS011;8060;50.948;3.146;2023-09-12T12:28:40;28.40;;;25.40;;
15921;SDS011;8060;50.948;3.146;2023-09-12T12:31:08;27.55;;;24.65;;
15921;SDS011;8060;50.948;3.146;2023-09-12T12:33:37;30.25;;;23.38;;
15921;SDS011;8060;50.948;3.146;2023-09-12T12:36:26;24.30;;;21.55;;
15921;SDS011;8060;50.948;3.146;2023-09-12T12:38:55;29.15;;;22.98;;
15921;SDS011;8060;50.948;3.146;2023-09-12T12:41:24;24.13;;;21.58;;
15921;SDS011;8060;50.948;3.146;2023-09-12T12:44:05;24.92;;;21.20;;
15921;SDS011;8060;50.948;3.146;2023-09-12T12:46:33;24.92;;;22.23;;
15921;SDS011;8060;50.948;3.146;2023-09-12T12:49:01;25.08;;;20.88;;
15921;SDS011;8060;50.948;3.146;2023-09-12T12:51:33;24.75;;;20.63;;
15921;SDS011;8060;50.948;3.146;2023-09-12T12:54:04;21.30;;;19.08;;
15921;SDS011;8060;50.948;3.146;2023-09-12T12:56:33;24.20;;;20.17;;
15921;SDS011;8060;50.948;3.146;2023-09-12T12:59:02;21.33;;;19.05;;
15921;SDS011;8060;50.948;3.146;2023-09-12T13:01:33;20.02;;;18.02;;
15921;SDS011;8060;50.948;3.146;2023-09-12T13:04:04;23.10;;;19.95;;
15921;SDS011;8060;50.948;3.146;2023-09-12T13:06:34;22.48;;;19.45;;
15921;SDS011;8060;50.948;3.146;2023-09-12T13:09:03;19.23;;;17.25;;
15921;SDS011;8060;50.948;3.146;2023-09-12T13:11:33;20.08;;;18.05;;
15921;SDS011;8060;50.948;3.146;2023-09-12T13:14:02;22.98;;;18.30;;
15921;SDS011;8060;50.948;3.146;2023-09-12T13:16:35;18.85;;;15.57;;
15921;SDS011;8060;50.948;3.146;2023-09-12T13:19:03;16.08;;;14.40;;
15921;SDS011;8060;50.948;3.146;2023-09-12T13:21:31;15.45;;;13.05;;
15921;SDS011;8060;50.948;3.146;2023-09-12T13:24:01;16.00;;;14.38;;
15921;SDS011;8060;50.948;3.146;2023-09-12T13:26:29;15.35;;;12.20;;
15921;SDS011;8060;50.948;3.146;2023-09-12T13:28:58;15.73;;;13.60;;
15921;SDS011;8060;50.948;3.146;2023-09-12T13:31:26;15.30;;;13.70;;
15921;SDS011;8060;50.948;3.146;2023-09-12T13:33:54;13.35;;;10.93;;
15921;SDS011;8060;50.948;3.146;2023-09-12T13:36:22;12.93;;;9.20;;
15921;SDS011;8060;50.948;3.146;2023-09-12T13:38:50;12.20;;;9.80;;
15921;SDS011;8060;50.948;3.146;2023-09-12T13:41:20;12.50;;;9.13;;
15921;SDS011;8060;50.948;3.146;2023-09-12T13:43:48;13.80;;;10.00;;
15921;SDS011;8060;50.948;3.146;2023-09-12T13:46:17;13.05;;;11.35;;
15921;SDS011;8060;50.948;3.146;2023-09-12T13:48:45;15.13;;;11.52;;
15921;SDS011;8060;50.948;3.146;2023-09-12T13:51:15;16.35;;;12.85;;
15921;SDS011;8060;50.948;3.146;2023-09-12T13:53:43;17.02;;;15.25;;
15921;SDS011;8060;50.948;3.146;2023-09-12T13:56:12;20.35;;;16.35;;
15921;SDS011;8060;50.948;3.146;2023-09-12T13:58:41;17.40;;;15.48;;
15921;SDS011;8060;50.948;3.146;2023-09-12T14:01:18;21.92;;;17.35;;
15921;SDS011;8060;50.948;3.146;2023-09-12T14:03:59;19.38;;;15.68;;
15921;SDS011;8060;50.948;3.146;2023-09-12T14:06:28;17.25;;;14.82;;
15921;SDS011;8060;50.948;3.146;2023-09-12T14:08:57;22.08;;;19.77;;
15921;SDS011;8060;50.948;3.146;2023-09-12T14:11:25;21.73;;;19.48;;
15921;SDS011;8060;50.948;3.146;2023-09-12T14:14:02;20.73;;;17.60;;
15921;SDS011;8060;50.948;3.146;2023-09-12T14:16:34;20.77;;;16.70;;
15921;SDS011;8060;50.948;3.146;2023-09-12T14:19:03;21.65;;;17.83;;
15921;SDS011;8060;50.948;3.146;2023-09-12T14:21:32;17.80;;;15.90;;
15921;SDS011;8060;50.948;3.146;2023-09-12T14:24:01;23.45;;;17.77;;
15921;SDS011;8060;50.948;3.146;2023-09-12T14:26:31;19.45;;;16.77;;
15921;SDS011;8060;50.948;3.146;2023-09-12T14:28:59;20.23;;;15.98;;
15921;SDS011;8060;50.948;3.146;2023-09-12T14:31:29;19.83;;;16.40;;
15921;SDS011;8060;50.948;3.146;2023-09-12T14:33:57;19.58;;;16.75;;
15921;SDS011;8060;50.948;3.146;2023-09-12T14:36:26;25.00;;;17.17;;
15921;SDS011;8060;50.948;3.146;2023-09-12T14:38:54;23.05;;;19.25;;
15921;SDS011;8060;50.948;3.146;2023-09-12T14:41:22;24.40;;;18.17;;
15921;SDS011;8060;50.948;3.146;2023-09-12T14:43:50;21.10;;;18.38;;
15921;SDS011;8060;50.948;3.146;2023-09-12T14:46:18;26.27;;;17.90;;
15921;SDS011;8060;50.948;3.146;2023-09-12T14:48:49;27.48;;;20.70;;
15921;SDS011;8060;50.948;3.146;2023-09-12T14:51:27;23.50;;;18.98;;
15921;SDS011;8060;50.948;3.146;2023-09-12T14:53:59;19.38;;;17.35;;
15921;SDS011;8060;50.948;3.146;2023-09-12T14:56:27;21.83;;;17.90;;
15921;SDS011;8060;50.948;3.146;2023-09-12T14:58:55;19.05;;;17.08;;
15921;SDS011;8060;50.948;3.146;2023-09-12T15:01:24;19.25;;;17.20;;
15921;SDS011;8060;50.948;3.146;2023-09-12T15:03:53;24.48;;;17.38;;
15921;SDS011;8060;50.948;3.146;2023-09-12T15:06:22;27.10;;;18.83;;
15921;SDS011;8060;50.948;3.146;2023-09-12T15:08:51;26.10;;;19.45;;
15921;SDS011;8060;50.948;3.146;2023-09-12T15:11:19;29.30;;;20.40;;
15921;SDS011;8060;50.948;3.146;2023-09-12T15:13:47;24.33;;;20.33;;
15921;SDS011;8060;50.948;3.146;2023-09-12T15:16:16;29.75;;;22.52;;
15921;SDS011;8060;50.948;3.146;2023-09-12T15:18:44;28.27;;;21.92;;
15921;SDS011;8060;50.948;3.146;2023-09-12T15:21:15;26.73;;;21.65;;
15921;SDS011;8060;50.948;3.146;2023-09-12T15:23:43;25.90;;;21.45;;
15921;SDS011;8060;50.948;3.146;2023-09-12T15:26:11;26.92;;;20.75;;
15921;SDS011;8060;50.948;3.146;2023-09-12T15:28:39;26.88;;;19.85;;
15921;SDS011;8060;50.948;3.146;2023-09-12T15:31:08;27.13;;;19.40;;
15921;SDS011;8060;50.948;3.146;2023-09-12T15:33:36;24.58;;;18.60;;
15921;SDS011;8060;50.948;3.146;2023-09-12T15:36:05;24.55;;;18.63;;
15921;SDS011;8060;50.948;3.146;2023-09-12T15:38:34;23.80;;;17.90;;
15921;SDS011;8060;50.948;3.146;2023-09-12T15:41:02;24.83;;;18.13;;
15921;SDS011;8060;50.948;3.146;2023-09-12T15:43:34;24.65;;;16.92;;
15921;SDS011;8060;50.948;3.146;2023-09-12T15:46:02;23.05;;;16.92;;
15921;SDS011;8060;50.948;3.146;2023-09-12T15:48:30;22.00;;;16.67;;
15921;SDS011;8060;50.948;3.146;2023-09-12T15:50:59;23.63;;;16.48;;
15921;SDS011;8060;50.948;3.146;2023-09-12T15:53:27;22.33;;;16.50;;
15921;SDS011;8060;50.948;3.146;2023-09-12T15:55:56;19.55;;;15.68;;
15921;SDS011;8060;50.948;3.146;2023-09-12T15:58:24;26.13;;;16.55;;
15921;SDS011;8060;50.948;3.146;2023-09-12T16:00:55;23.17;;;16.00;;
15921;SDS011;8060;50.948;3.146;2023-09-12T16:03:26;21.67;;;16.33;;
15921;SDS011;8060;50.948;3.146;2023-09-12T16:05:54;20.63;;;15.00;;
15921;SDS011;8060;50.948;3.146;2023-09-12T16:08:22;19.73;;;14.05;;
15921;SDS011;8060;50.948;3.146;2023-09-12T16:10:50;19.33;;;13.57;;
15921;SDS011;8060;50.948;3.146;2023-09-12T16:13:20;20.52;;;13.93;;
15921;SDS011;8060;50.948;3.146;2023-09-12T16:15:48;18.77;;;14.18;;
15921;SDS011;8060;50.948;3.146;2023-09-12T16:18:17;20.42;;;13.27;;
15921;SDS011;8060;50.948;3.146;2023-09-12T16:20:45;18.67;;;12.77;;
15921;SDS011;8060;50.948;3.146;2023-09-12T16:23:13;20.90;;;12.15;;
15921;SDS011;8060;50.948;3.146;2023-09-12T16:25:42;17.20;;;12.38;;
15921;SDS011;8060;50.948;3.146;2023-09-12T16:28:11;17.80;;;12.15;;
15921;SDS011;8060;50.948;3.146;2023-09-12T16:30:40;18.52;;;12.85;;
15921;SDS011;8060;50.948;3.146;2023-09-12T16:33:10;17.52;;;12.07;;
15921;SDS011;8060;50.948;3.146;2023-09-12T16:35:39;20.05;;;13.32;;
15921;SDS011;8060;50.948;3.146;2023-09-12T16:38:07;19.35;;;12.60;;
15921;SDS011;8060;50.948;3.146;2023-09-12T16:40:35;17.48;;;12.43;;
15921;SDS011;8060;50.948;3.146;2023-09-12T16:43:05;21.52;;;12.52;;
15921;SDS011;8060;50.948;3.146;2023-09-12T16:45:33;20.45;;;13.57;;
15921;SDS011;8060;50.948;3.146;2023-09-12T16:48:04;18.83;;;13.68;;
15921;SDS011;8060;50.948;3.146;2023-09-12T16:50:32;21.23;;;13.30;;
15921;SDS011;8060;50.948;3.146;2023-09-12T16:53:00;18.08;;;12.30;;
15921;SDS011;8060;50.948;3.146;2023-09-12T16:55:30;18.55;;;13.25;;
15921;SDS011;8060;50.948;3.146;2023-09-12T16:57:58;22.77;;;13.57;;
15921;SDS011;8060;50.948;3.146;2023-09-12T17:00:27;18.38;;;12.90;;
15921;SDS011;8060;50.948;3.146;2023-09-12T17:02:56;19.70;;;13.77;;
15921;SDS011;8060;50.948;3.146;2023-09-12T17:05:25;21.02;;;14.20;;
15921;SDS011;8060;50.948;3.146;2023-09-12T17:07:54;19.10;;;14.13;;
15921;SDS011;8060;50.948;3.146;2023-09-12T17:10:22;23.65;;;14.93;;
15921;SDS011;8060;50.948;3.146;2023-09-12T17:12:50;20.83;;;14.27;;
15921;SDS011;8060;50.948;3.146;2023-09-12T17:15:18;21.23;;;15.43;;
15921;SDS011;8060;50.948;3.146;2023-09-12T17:17:47;22.67;;;15.07;;
15921;SDS011;8060;50.948;3.146;2023-09-12T17:20:15;21.63;;;15.15;;
15921;SDS011;8060;50.948;3.146;2023-09-12T17:22:45;23.57;;;15.57;;
